sensor_id;sensor_type;location;lat;lon;timestamp;temperature;humidity
49218;DHT22;35045;51.194;7.268;2023-04-01T00:00:59;9.00;99.90
49218;DHT22;35045;51.194;7.268;2023-04-01T00:03:27;9.00;99.90
49218;DHT22;35045;51.194;7.268;2023-04-01T00:05:54;9.00;99.90
49218;DHT22;35045;51.194;7.268;2023-04-01T00:08:22;9.00;99.90
49218;DHT22;35045;51.194;7.268;2023-04-01T00:10:48;8.90;99.90
49218;DHT22;35045;51.194;7.268;2023-04-01T00:13:14;8.90;99.90
49218;DHT22;35045;51.194;7.268;2023-04-01T00:15:42;9.00;99.90
49218;DHT22;35045;51.194;7.268;2023-04-01T00:18:08;8.90;99.90
49218;DHT22;35045;51.194;7.268;2023-04-01T00:20:35;8.90;99.90
49218;DHT22;35045;51.194;7.268;2023-04-01T00:23:02;8.80;99.90
49218;DHT22;35045;51.194;7.268;2023-04-01T00:25:28;8.80;99.90
49218;DHT22;35045;51.194;7.268;2023-04-01T00:27:54;8.80;99.90
49218;DHT22;35045;51.194;7.268;2023-04-01T00:30:20;8.90;99.90
49218;DHT22;35045;51.194;7.268;2023-04-01T00:32:47;8.90;99.90
49218;DHT22;35045;51.194;7.268;2023-04-01T00:35:17;8.90;99.90
49218;DHT22;35045;51.194;7.268;2023-04-01T00:37:43;8.80;99.90
49218;DHT22;35045;51.194;7.268;2023-04-01T00:40:31;8.80;99.90
49218;DHT22;35045;51.194;7.268;2023-04-01T00:42:58;8.80;99.90
49218;DHT22;35045;51.194;7.268;2023-04-01T00:45:31;8.90;99.90
49218;DHT22;35045;51.194;7.268;2023-04-01T00:48:01;8.90;99.90
49218;DHT22;35045;51.194;7.268;2023-04-01T00:50:29;8.90;99.90
49218;DHT22;35045;51.194;7.268;2023-04-01T00:52:57;8.90;99.90
49218;DHT22;35045;51.194;7.268;2023-04-01T00:55:25;9.00;99.90
49218;DHT22;35045;51.194;7.268;2023-04-01T00:57:53;9.00;99.90
49218;DHT22;35045;51.194;7.268;2023-04-01T01:00:20;9.00;99.90
49218;DHT22;35045;51.194;7.268;2023-04-01T01:02:49;9.00;99.90
49218;DHT22;35045;51.194;7.268;2023-04-01T01:05:16;8.90;99.90
49218;DHT22;35045;51.194;7.268;2023-04-01T01:08:02;8.90;99.90
49218;DHT22;35045;51.194;7.268;2023-04-01T01:10:31;8.90;99.90
49218;DHT22;35045;51.194;7.268;2023-04-01T01:15:53;8.80;99.90
49218;DHT22;35045;51.194;7.268;2023-04-01T01:18:41;8.90;99.90
49218;DHT22;35045;51.194;7.268;2023-04-01T01:26:57;8.90;99.90
49218;DHT22;35045;51.194;7.268;2023-04-01T01:35:43;8.90;99.90
49218;DHT22;35045;51.194;7.268;2023-04-01T01:38:14;8.90;99.90
49218;DHT22;35045;51.194;7.268;2023-04-01T01:40:43;8.90;99.90
49218;DHT22;35045;51.194;7.268;2023-04-01T01:43:14;8.90;99.90
49218;DHT22;35045;51.194;7.268;2023-04-01T01:45:48;8.90;99.90
49218;DHT22;35045;51.194;7.268;2023-04-01T01:48:16;8.90;99.90
49218;DHT22;35045;51.194;7.268;2023-04-01T01:50:44;8.90;99.90
49218;DHT22;35045;51.194;7.268;2023-04-01T01:53:13;8.90;99.90
49218;DHT22;35045;51.194;7.268;2023-04-01T01:55:42;8.80;99.90
49218;DHT22;35045;51.194;7.268;2023-04-01T02:00:39;8.70;99.90
49218;DHT22;35045;51.194;7.268;2023-04-01T02:03:07;8.70;99.90
49218;DHT22;35045;51.194;7.268;2023-04-01T02:05:34;8.70;99.90
49218;DHT22;35045;51.194;7.268;2023-04-01T02:08:08;8.60;99.90
49218;DHT22;35045;51.194;7.268;2023-04-01T02:10:38;8.70;99.90
49218;DHT22;35045;51.194;7.268;2023-04-01T02:13:19;8.70;99.90
49218;DHT22;35045;51.194;7.268;2023-04-01T02:15:48;8.70;99.90
49218;DHT22;35045;51.194;7.268;2023-04-01T02:18:17;8.60;99.90
49218;DHT22;35045;51.194;7.268;2023-04-01T02:20:44;8.70;99.90
49218;DHT22;35045;51.194;7.268;2023-04-01T02:23:12;8.70;99.90
49218;DHT22;35045;51.194;7.268;2023-04-01T02:25:39;8.70;99.90
49218;DHT22;35045;51.194;7.268;2023-04-01T02:28:08;8.70;99.90
49218;DHT22;35045;51.194;7.268;2023-04-01T02:30:37;8.80;99.90
49218;DHT22;35045;51.194;7.268;2023-04-01T02:33:05;8.80;99.90
49218;DHT22;35045;51.194;7.268;2023-04-01T02:35:35;8.80;99.90
49218;DHT22;35045;51.194;7.268;2023-04-01T02:38:02;8.80;99.90
49218;DHT22;35045;51.194;7.268;2023-04-01T02:40:28;8.70;99.90
49218;DHT22;35045;51.194;7.268;2023-04-01T02:42:54;8.70;99.90
49218;DHT22;35045;51.194;7.268;2023-04-01T02:45:21;8.70;99.90
49218;DHT22;35045;51.194;7.268;2023-04-01T02:47:47;8.70;99.90
49218;DHT22;35045;51.194;7.268;2023-04-01T02:50:13;8.60;99.90
49218;DHT22;35045;51.194;7.268;2023-04-01T02:52:39;8.60;99.90
49218;DHT22;35045;51.194;7.268;2023-04-01T02:55:06;8.60;99.90
49218;DHT22;35045;51.194;7.268;2023-04-01T02:57:32;8.60;99.90
49218;DHT22;35045;51.194;7.268;2023-04-01T02:59:58;8.60;99.90
49218;DHT22;35045;51.194;7.268;2023-04-01T03:02:24;8.50;99.90
49218;DHT22;35045;51.194;7.268;2023-04-01T03:04:51;8.50;99.90
49218;DHT22;35045;51.194;7.268;2023-04-01T03:07:17;8.40;99.90
49218;DHT22;35045;51.194;7.268;2023-04-01T03:09:43;8.40;99.90
49218;DHT22;35045;51.194;7.268;2023-04-01T03:12:09;8.50;99.90
49218;DHT22;35045;51.194;7.268;2023-04-01T03:14:36;8.50;99.90
49218;DHT22;35045;51.194;7.268;2023-04-01T03:17:02;8.50;99.90
49218;DHT22;35045;51.194;7.268;2023-04-01T03:19:28;8.50;99.90
49218;DHT22;35045;51.194;7.268;2023-04-01T03:21:54;8.50;99.90
49218;DHT22;35045;51.194;7.268;2023-04-01T03:24:21;8.40;99.90
49218;DHT22;35045;51.194;7.268;2023-04-01T03:26:47;8.40;99.90
49218;DHT22;35045;51.194;7.268;2023-04-01T03:29:13;8.40;99.90
49218;DHT22;35045;51.194;7.268;2023-04-01T03:31:41;8.50;99.90
49218;DHT22;35045;51.194;7.268;2023-04-01T03:34:08;8.50;99.90
49218;DHT22;35045;51.194;7.268;2023-04-01T03:36:34;8.50;99.90
49218;DHT22;35045;51.194;7.268;2023-04-01T03:39:00;8.40;99.90
49218;DHT22;35045;51.194;7.268;2023-04-01T03:41:27;8.40;99.90
49218;DHT22;35045;51.194;7.268;2023-04-01T03:43:53;8.40;99.90
49218;DHT22;35045;51.194;7.268;2023-04-01T03:46:20;8.50;99.90
49218;DHT22;35045;51.194;7.268;2023-04-01T03:48:46;8.50;99.90
49218;DHT22;35045;51.194;7.268;2023-04-01T03:51:13;8.50;99.90
49218;DHT22;35045;51.194;7.268;2023-04-01T03:53:39;8.50;99.90
49218;DHT22;35045;51.194;7.268;2023-04-01T03:56:06;8.50;99.90
49218;DHT22;35045;51.194;7.268;2023-04-01T03:58:33;8.50;99.90
49218;DHT22;35045;51.194;7.268;2023-04-01T04:00:59;8.50;99.90
49218;DHT22;35045;51.194;7.268;2023-04-01T04:03:25;8.50;99.90
49218;DHT22;35045;51.194;7.268;2023-04-01T04:05:52;8.50;99.90
49218;DHT22;35045;51.194;7.268;2023-04-01T04:08:18;8.50;99.90
49218;DHT22;35045;51.194;7.268;2023-04-01T04:10:44;8.50;99.90
49218;DHT22;35045;51.194;7.268;2023-04-01T04:13:12;8.50;99.90
49218;DHT22;35045;51.194;7.268;2023-04-01T04:15:38;8.40;99.90
49218;DHT22;35045;51.194;7.268;2023-04-01T04:18:04;8.40;99.90
49218;DHT22;35045;51.194;7.268;2023-04-01T04:20:30;8.40;99.90
49218;DHT22;35045;51.194;7.268;2023-04-01T04:22:56;8.50;99.90
49218;DHT22;35045;51.194;7.268;2023-04-01T04:25:22;8.50;99.90
49218;DHT22;35045;51.194;7.268;2023-04-01T04:27:49;8.50;99.90
49218;DHT22;35045;51.194;7.268;2023-04-01T04:30:15;8.60;99.90
49218;DHT22;35045;51.194;7.268;2023-04-01T04:32:41;8.50;99.90
49218;DHT22;35045;51.194;7.268;2023-04-01T04:35:08;8.50;99.90
49218;DHT22;35045;51.194;7.268;2023-04-01T04:37:34;8.50;99.90
49218;DHT22;35045;51.194;7.268;2023-04-01T04:40:00;8.50;99.90
49218;DHT22;35045;51.194;7.268;2023-04-01T04:42:26;8.40;99.90
49218;DHT22;35045;51.194;7.268;2023-04-01T04:44:53;8.40;99.90
49218;DHT22;35045;51.194;7.268;2023-04-01T04:47:19;8.40;99.90
49218;DHT22;35045;51.194;7.268;2023-04-01T04:49:45;8.40;99.90
49218;DHT22;35045;51.194;7.268;2023-04-01T04:52:12;8.40;99.90
49218;DHT22;35045;51.194;7.268;2023-04-01T04:54:38;8.40;99.90
49218;DHT22;35045;51.194;7.268;2023-04-01T04:57:04;8.50;99.90
49218;DHT22;35045;51.194;7.268;2023-04-01T04:59:30;8.50;99.90
49218;DHT22;35045;51.194;7.268;2023-04-01T05:01:57;8.40;99.90
49218;DHT22;35045;51.194;7.268;2023-04-01T05:04:23;8.50;99.90
49218;DHT22;35045;51.194;7.268;2023-04-01T05:06:49;8.50;99.90
49218;DHT22;35045;51.194;7.268;2023-04-01T05:09:17;8.50;99.90
49218;DHT22;35045;51.194;7.268;2023-04-01T05:11:43;8.50;99.90
49218;DHT22;35045;51.194;7.268;2023-04-01T05:14:18;8.50;99.90
49218;DHT22;35045;51.194;7.268;2023-04-01T05:16:44;8.50;99.90
49218;DHT22;35045;51.194;7.268;2023-04-01T05:19:11;8.60;99.90
49218;DHT22;35045;51.194;7.268;2023-04-01T05:21:37;8.60;99.90
49218;DHT22;35045;51.194;7.268;2023-04-01T05:24:03;8.60;99.90
49218;DHT22;35045;51.194;7.268;2023-04-01T05:26:29;8.60;99.90
49218;DHT22;35045;51.194;7.268;2023-04-01T05:28:56;8.70;99.90
49218;DHT22;35045;51.194;7.268;2023-04-01T05:31:22;8.70;99.90
49218;DHT22;35045;51.194;7.268;2023-04-01T05:33:49;8.70;99.90
49218;DHT22;35045;51.194;7.268;2023-04-01T05:36:16;8.70;99.90
49218;DHT22;35045;51.194;7.268;2023-04-01T05:38:43;8.80;99.90
49218;DHT22;35045;51.194;7.268;2023-04-01T05:41:11;8.80;99.90
49218;DHT22;35045;51.194;7.268;2023-04-01T05:43:39;8.70;99.90
49218;DHT22;35045;51.194;7.268;2023-04-01T05:46:06;8.80;99.90
49218;DHT22;35045;51.194;7.268;2023-04-01T05:48:33;8.70;99.90
49218;DHT22;35045;51.194;7.268;2023-04-01T05:51:01;8.80;99.90
49218;DHT22;35045;51.194;7.268;2023-04-01T05:53:27;8.70;99.90
49218;DHT22;35045;51.194;7.268;2023-04-01T05:55:53;8.70;99.90
49218;DHT22;35045;51.194;7.268;2023-04-01T05:58:19;8.70;99.90
49218;DHT22;35045;51.194;7.268;2023-04-01T06:00:46;8.70;99.90
49218;DHT22;35045;51.194;7.268;2023-04-01T06:03:13;8.80;99.90
49218;DHT22;35045;51.194;7.268;2023-04-01T06:05:41;8.80;99.90
49218;DHT22;35045;51.194;7.268;2023-04-01T06:08:13;8.80;99.90
49218;DHT22;35045;51.194;7.268;2023-04-01T06:11:02;8.90;99.90
49218;DHT22;35045;51.194;7.268;2023-04-01T06:13:49;8.80;99.90
49218;DHT22;35045;51.194;7.268;2023-04-01T06:16:49;8.80;99.90
49218;DHT22;35045;51.194;7.268;2023-04-01T06:19:34;8.90;99.90
49218;DHT22;35045;51.194;7.268;2023-04-01T06:27:46;8.80;99.90
49218;DHT22;35045;51.194;7.268;2023-04-01T06:45:22;8.80;99.90
49218;DHT22;35045;51.194;7.268;2023-04-01T06:56:02;8.80;99.90
49218;DHT22;35045;51.194;7.268;2023-04-01T06:58:39;8.80;99.90
49218;DHT22;35045;51.194;7.268;2023-04-01T07:01:20;8.80;99.90
49218;DHT22;35045;51.194;7.268;2023-04-01T07:03:53;8.80;99.90
49218;DHT22;35045;51.194;7.268;2023-04-01T07:06:31;8.90;99.90
49218;DHT22;35045;51.194;7.268;2023-04-01T07:09:00;8.90;99.90
49218;DHT22;35045;51.194;7.268;2023-04-01T07:11:33;8.90;99.90
49218;DHT22;35045;51.194;7.268;2023-04-01T07:14:34;8.90;99.90
49218;DHT22;35045;51.194;7.268;2023-04-01T07:17:08;8.90;99.90
49218;DHT22;35045;51.194;7.268;2023-04-01T07:20:02;9.00;99.90
49218;DHT22;35045;51.194;7.268;2023-04-01T07:22:46;8.90;99.90
49218;DHT22;35045;51.194;7.268;2023-04-01T07:25:38;8.90;99.90
49218;DHT22;35045;51.194;7.268;2023-04-01T07:28:12;8.90;99.90
49218;DHT22;35045;51.194;7.268;2023-04-01T07:36:02;9.00;99.90
49218;DHT22;35045;51.194;7.268;2023-04-01T07:41:38;9.00;99.90
49218;DHT22;35045;51.194;7.268;2023-04-01T07:49:42;9.10;99.90
49218;DHT22;35045;51.194;7.268;2023-04-01T07:55:12;9.10;99.90
49218;DHT22;35045;51.194;7.268;2023-04-01T07:57:46;9.10;99.90
49218;DHT22;35045;51.194;7.268;2023-04-01T08:00:26;9.00;99.90
49218;DHT22;35045;51.194;7.268;2023-04-01T08:06:14;9.00;99.90
49218;DHT22;35045;51.194;7.268;2023-04-01T08:08:56;9.00;99.90
49218;DHT22;35045;51.194;7.268;2023-04-01T08:11:39;9.00;99.90
49218;DHT22;35045;51.194;7.268;2023-04-01T08:16:41;9.00;99.90
49218;DHT22;35045;51.194;7.268;2023-04-01T08:19:30;9.00;99.90
49218;DHT22;35045;51.194;7.268;2023-04-01T08:22:07;9.00;99.90
49218;DHT22;35045;51.194;7.268;2023-04-01T08:24:41;9.00;99.90
49218;DHT22;35045;51.194;7.268;2023-04-01T08:27:14;9.10;99.90
49218;DHT22;35045;51.194;7.268;2023-04-01T08:29:56;9.00;99.90
49218;DHT22;35045;51.194;7.268;2023-04-01T08:32:35;9.00;99.90
49218;DHT22;35045;51.194;7.268;2023-04-01T08:35:14;9.00;99.90
49218;DHT22;35045;51.194;7.268;2023-04-01T08:37:44;9.00;99.90
49218;DHT22;35045;51.194;7.268;2023-04-01T08:54:13;8.90;99.90
49218;DHT22;35045;51.194;7.268;2023-04-01T08:56:49;9.00;99.90
49218;DHT22;35045;51.194;7.268;2023-04-01T09:08:01;9.10;99.90
49218;DHT22;35045;51.194;7.268;2023-04-01T09:10:49;9.10;99.90
49218;DHT22;35045;51.194;7.268;2023-04-01T09:19:15;9.00;99.90
49218;DHT22;35045;51.194;7.268;2023-04-01T09:21:57;9.10;99.90
49218;DHT22;35045;51.194;7.268;2023-04-01T09:38:57;9.00;99.90
49218;DHT22;35045;51.194;7.268;2023-04-01T09:41:40;9.10;99.90
49218;DHT22;35045;51.194;7.268;2023-04-01T09:55:06;9.30;99.90
49218;DHT22;35045;51.194;7.268;2023-04-01T10:06:14;9.40;99.90
49218;DHT22;35045;51.194;7.268;2023-04-01T10:08:57;9.40;99.90
49218;DHT22;35045;51.194;7.268;2023-04-01T10:14:33;9.30;99.90
49218;DHT22;35045;51.194;7.268;2023-04-01T10:28:08;9.30;99.90
49218;DHT22;35045;51.194;7.268;2023-04-01T10:33:54;9.20;99.90
49218;DHT22;35045;51.194;7.268;2023-04-01T10:36:40;9.20;99.90
49218;DHT22;35045;51.194;7.268;2023-04-01T10:39:33;9.20;99.90
49218;DHT22;35045;51.194;7.268;2023-04-01T11:10:55;9.50;99.90
49218;DHT22;35045;51.194;7.268;2023-04-01T11:25:17;9.30;99.90
49218;DHT22;35045;51.194;7.268;2023-04-01T11:33:38;9.50;99.90
49218;DHT22;35045;51.194;7.268;2023-04-01T11:36:19;9.50;99.90
49218;DHT22;35045;51.194;7.268;2023-04-01T11:41:58;9.50;99.90
49218;DHT22;35045;51.194;7.268;2023-04-01T11:44:29;9.40;99.90
49218;DHT22;35045;51.194;7.268;2023-04-01T12:06:36;9.60;99.90
49218;DHT22;35045;51.194;7.268;2023-04-01T12:15:48;9.60;99.90
49218;DHT22;35045;51.194;7.268;2023-04-01T12:20:33;9.50;99.90
49218;DHT22;35045;51.194;7.268;2023-04-01T12:26:10;9.60;99.90
49218;DHT22;35045;51.194;7.268;2023-04-01T12:29:02;9.60;99.90
49218;DHT22;35045;51.194;7.268;2023-04-01T12:32:13;9.60;99.90
49218;DHT22;35045;51.194;7.268;2023-04-01T12:39:58;9.50;99.90
49218;DHT22;35045;51.194;7.268;2023-04-01T12:42:51;9.50;99.90
49218;DHT22;35045;51.194;7.268;2023-04-01T12:48:19;9.40;99.90
49218;DHT22;35045;51.194;7.268;2023-04-01T12:51:20;9.40;99.90
49218;DHT22;35045;51.194;7.268;2023-04-01T13:00:13;9.40;99.90
49218;DHT22;35045;51.194;7.268;2023-04-01T13:06:07;9.40;99.90
49218;DHT22;35045;51.194;7.268;2023-04-01T13:25:28;9.70;99.90
49218;DHT22;35045;51.194;7.268;2023-04-01T13:28:05;9.70;99.90
49218;DHT22;35045;51.194;7.268;2023-04-01T13:31:05;9.70;99.90
49218;DHT22;35045;51.194;7.268;2023-04-01T13:33:47;9.90;99.90
49218;DHT22;35045;51.194;7.268;2023-04-01T13:42:23;9.70;99.90
49218;DHT22;35045;51.194;7.268;2023-04-01T13:45:19;9.70;99.90
49218;DHT22;35045;51.194;7.268;2023-04-01T13:48:03;9.70;99.90
49218;DHT22;35045;51.194;7.268;2023-04-01T13:50:58;9.70;99.90
49218;DHT22;35045;51.194;7.268;2023-04-01T13:56:24;9.70;99.90
49218;DHT22;35045;51.194;7.268;2023-04-01T14:06:55;9.80;99.90
49218;DHT22;35045;51.194;7.268;2023-04-01T14:12:57;9.80;99.90
49218;DHT22;35045;51.194;7.268;2023-04-01T14:15:39;9.80;99.90
49218;DHT22;35045;51.194;7.268;2023-04-01T14:18:24;9.70;99.90
49218;DHT22;35045;51.194;7.268;2023-04-01T14:21:07;9.70;99.90
49218;DHT22;35045;51.194;7.268;2023-04-01T14:23:50;9.90;99.90
49218;DHT22;35045;51.194;7.268;2023-04-01T14:34:48;9.80;99.90
49218;DHT22;35045;51.194;7.268;2023-04-01T14:41:05;9.80;99.90
49218;DHT22;35045;51.194;7.268;2023-04-01T14:49:41;9.70;99.90
49218;DHT22;35045;51.194;7.268;2023-04-01T14:54:49;9.70;99.90
49218;DHT22;35045;51.194;7.268;2023-04-01T14:57:27;9.70;99.90
49218;DHT22;35045;51.194;7.268;2023-04-01T15:11:15;9.70;99.90
49218;DHT22;35045;51.194;7.268;2023-04-01T15:14:06;9.60;99.90
49218;DHT22;35045;51.194;7.268;2023-04-01T15:16:55;9.60;99.90
49218;DHT22;35045;51.194;7.268;2023-04-01T15:19:39;9.60;99.90
49218;DHT22;35045;51.194;7.268;2023-04-01T15:22:20;9.50;99.90
49218;DHT22;35045;51.194;7.268;2023-04-01T15:28:09;9.50;99.90
49218;DHT22;35045;51.194;7.268;2023-04-01T15:30:48;9.60;99.90
49218;DHT22;35045;51.194;7.268;2023-04-01T15:39:22;9.60;99.90
49218;DHT22;35045;51.194;7.268;2023-04-01T15:45:01;9.70;99.90
49218;DHT22;35045;51.194;7.268;2023-04-01T15:47:37;9.60;99.90
49218;DHT22;35045;51.194;7.268;2023-04-01T15:58:30;9.70;99.90
49218;DHT22;35045;51.194;7.268;2023-04-01T16:01:15;9.70;99.90
49218;DHT22;35045;51.194;7.268;2023-04-01T16:19:59;9.70;99.90
49218;DHT22;35045;51.194;7.268;2023-04-01T16:22:32;9.70;99.90
49218;DHT22;35045;51.194;7.268;2023-04-01T16:30:40;9.40;99.90
49218;DHT22;35045;51.194;7.268;2023-04-01T16:35:44;9.50;99.90
49218;DHT22;35045;51.194;7.268;2023-04-01T16:41:18;9.50;99.90
49218;DHT22;35045;51.194;7.268;2023-04-01T16:44:10;9.50;99.90
49218;DHT22;35045;51.194;7.268;2023-04-01T16:46:41;9.60;99.90
49218;DHT22;35045;51.194;7.268;2023-04-01T17:02:26;9.40;99.90
49218;DHT22;35045;51.194;7.268;2023-04-01T17:05:08;9.40;99.90
49218;DHT22;35045;51.194;7.268;2023-04-01T17:10:37;9.40;99.90
49218;DHT22;35045;51.194;7.268;2023-04-01T17:15:56;9.40;99.90
49218;DHT22;35045;51.194;7.268;2023-04-01T17:24:51;9.40;99.90
49218;DHT22;35045;51.194;7.268;2023-04-01T17:27:36;9.40;99.90
49218;DHT22;35045;51.194;7.268;2023-04-01T17:30:19;9.40;99.90
49218;DHT22;35045;51.194;7.268;2023-04-01T17:39:02;9.40;99.90
49218;DHT22;35045;51.194;7.268;2023-04-01T17:41:57;9.40;99.90
49218;DHT22;35045;51.194;7.268;2023-04-01T17:44:45;9.40;99.90
49218;DHT22;35045;51.194;7.268;2023-04-01T18:00:33;9.40;99.90
49218;DHT22;35045;51.194;7.268;2023-04-01T18:03:39;9.40;99.90
49218;DHT22;35045;51.194;7.268;2023-04-01T18:09:09;9.30;99.90
49218;DHT22;35045;51.194;7.268;2023-04-01T18:17:25;9.30;99.90
49218;DHT22;35045;51.194;7.268;2023-04-01T18:22:53;9.30;99.90
49218;DHT22;35045;51.194;7.268;2023-04-01T18:25:32;9.30;99.90
49218;DHT22;35045;51.194;7.268;2023-04-01T18:28:21;9.30;99.90
49218;DHT22;35045;51.194;7.268;2023-04-01T18:30:53;9.30;99.90
49218;DHT22;35045;51.194;7.268;2023-04-01T18:33:31;9.20;99.90
49218;DHT22;35045;51.194;7.268;2023-04-01T18:36:14;9.30;99.90
49218;DHT22;35045;51.194;7.268;2023-04-01T18:39:00;9.30;99.90
49218;DHT22;35045;51.194;7.268;2023-04-01T18:47:25;9.30;99.90
49218;DHT22;35045;51.194;7.268;2023-04-01T18:50:15;9.40;99.90
49218;DHT22;35045;51.194;7.268;2023-04-01T18:52:45;9.40;99.90
49218;DHT22;35045;51.194;7.268;2023-04-01T18:55:22;9.40;99.90
49218;DHT22;35045;51.194;7.268;2023-04-01T18:57:52;9.40;99.90
49218;DHT22;35045;51.194;7.268;2023-04-01T19:00:36;9.40;99.90
49218;DHT22;35045;51.194;7.268;2023-04-01T19:05:52;9.40;99.90
49218;DHT22;35045;51.194;7.268;2023-04-01T19:21:52;9.40;99.90
49218;DHT22;35045;51.194;7.268;2023-04-01T19:32:42;9.20;99.90
49218;DHT22;35045;51.194;7.268;2023-04-01T19:35:33;9.30;99.90
49218;DHT22;35045;51.194;7.268;2023-04-01T19:46:37;9.40;99.90
49218;DHT22;35045;51.194;7.268;2023-04-01T19:57:49;9.40;99.90
49218;DHT22;35045;51.194;7.268;2023-04-01T20:01:11;9.40;99.90
49218;DHT22;35045;51.194;7.268;2023-04-01T20:03:34;9.40;99.90
49218;DHT22;35045;51.194;7.268;2023-04-01T20:11:54;9.30;99.90
49218;DHT22;35045;51.194;7.268;2023-04-01T20:14:45;9.30;99.90
49218;DHT22;35045;51.194;7.268;2023-04-01T20:17:19;9.20;99.90
49218;DHT22;35045;51.194;7.268;2023-04-01T20:25:13;9.30;99.90
49218;DHT22;35045;51.194;7.268;2023-04-01T20:35:44;9.30;99.90
49218;DHT22;35045;51.194;7.268;2023-04-01T20:43:57;9.40;99.90
49218;DHT22;35045;51.194;7.268;2023-04-01T20:49:41;9.40;99.90
49218;DHT22;35045;51.194;7.268;2023-04-01T20:55:13;9.40;99.90
49218;DHT22;35045;51.194;7.268;2023-04-01T20:57:52;9.40;99.90
49218;DHT22;35045;51.194;7.268;2023-04-01T21:27:26;9.50;99.90
49218;DHT22;35045;51.194;7.268;2023-04-01T21:35:47;9.50;99.90
49218;DHT22;35045;51.194;7.268;2023-04-01T21:47:02;9.30;99.90
49218;DHT22;35045;51.194;7.268;2023-04-01T21:49:41;9.20;99.90
49218;DHT22;35045;51.194;7.268;2023-04-01T21:52:45;9.20;99.90
49218;DHT22;35045;51.194;7.268;2023-04-01T22:09:52;9.50;99.90
49218;DHT22;35045;51.194;7.268;2023-04-01T22:15:20;9.70;99.90
49218;DHT22;35045;51.194;7.268;2023-04-01T22:17:56;9.70;99.90
49218;DHT22;35045;51.194;7.268;2023-04-01T22:20:28;9.80;99.90
49218;DHT22;35045;51.194;7.268;2023-04-01T22:23:04;9.90;99.90
49218;DHT22;35045;51.194;7.268;2023-04-01T22:31:01;10.00;99.90
49218;DHT22;35045;51.194;7.268;2023-04-01T22:34:00;10.00;99.90
49218;DHT22;35045;51.194;7.268;2023-04-01T22:36:51;10.10;99.90
49218;DHT22;35045;51.194;7.268;2023-04-01T22:48:09;10.30;99.90
49218;DHT22;35045;51.194;7.268;2023-04-01T22:51:00;10.30;99.90
49218;DHT22;35045;51.194;7.268;2023-04-01T22:56:16;10.40;99.90
49218;DHT22;35045;51.194;7.268;2023-04-01T22:59:06;10.40;99.90
49218;DHT22;35045;51.194;7.268;2023-04-01T23:01:38;10.40;99.90
49218;DHT22;35045;51.194;7.268;2023-04-01T23:04:11;10.40;99.90
49218;DHT22;35045;51.194;7.268;2023-04-01T23:06:46;10.40;99.90
49218;DHT22;35045;51.194;7.268;2023-04-01T23:09:33;10.50;99.90
49218;DHT22;35045;51.194;7.268;2023-04-01T23:12:02;10.50;99.90
49218;DHT22;35045;51.194;7.268;2023-04-01T23:20:32;9.90;99.90
49218;DHT22;35045;51.194;7.268;2023-04-01T23:28:43;9.10;99.90
49218;DHT22;35045;51.194;7.268;2023-04-01T23:31:38;8.90;99.90
49218;DHT22;35045;51.194;7.268;2023-04-01T23:41:51;8.30;99.90
49218;DHT22;35045;51.194;7.268;2023-04-01T23:44:19;8.20;99.90
49218;DHT22;35045;51.194;7.268;2023-04-01T23:46:47;8.20;99.90
49218;DHT22;35045;51.194;7.268;2023-04-01T23:49:18;8.20;99.90
49218;DHT22;35045;51.194;7.268;2023-04-01T23:51:53;8.20;99.90
49218;DHT22;35045;51.194;7.268;2023-04-01T23:54:34;8.30;99.90
49218;DHT22;35045;51.194;7.268;2023-04-01T23:57:10;8.30;99.90
49218;DHT22;35045;51.194;7.268;2023-04-01T23:59:37;8.10;99.90
